Time;durP1;ratioP1;P1;durP2;ratioP2;P2;SDS_P1;SDS_P2;PMS_P1;PMS_P2;Temp;Humidity;BMP_temperature;BMP_pressure;BME280_temperature;BME280_humidity;BME280_pressure;Samples;Min_cycle;Max_cycle;Signal;HPM_P1;HPM_P2
2021/05/30 00:01:49;;;;;;;14.52;9.05;;;11.10;89.20;;;;;;5007983;28;20022;-70
2021/05/30 00:04:15;;;;;;;22.13;10.65;;;11.10;89.10;;;;;;5006680;28;20088;-69
2021/05/30 00:06:41;;;;;;;16.13;9.35;;;11.10;89.40;;;;;;4995053;28;20511;-69
2021/05/30 00:09:08;;;;;;;17.58;9.68;;;11.00;89.40;;;;;;4999208;28;20022;-69
2021/05/30 00:11:37;;;;;;;17.60;9.25;;;11.00;89.70;;;;;;4995393;28;20030;-70
2021/05/30 00:14:04;;;;;;;19.38;9.75;;;11.00;89.80;;;;;;4992423;28;20967;-69
2021/05/30 00:16:31;;;;;;;18.00;9.07;;;11.00;89.70;;;;;;4997387;28;20506;-69
2021/05/30 00:18:56;;;;;;;13.52;7.97;;;11.00;89.70;;;;;;4998863;28;20048;-69
2021/05/30 00:21:22;;;;;;;15.75;8.50;;;11.00;89.60;;;;;;5007180;28;20044;-69
2021/05/30 00:23:48;;;;;;;18.02;9.13;;;11.00;89.40;;;;;;5008562;28;20057;-70
2021/05/30 00:26:14;;;;;;;14.55;9.63;;;10.90;89.60;;;;;;5008819;28;20022;-70
2021/05/30 00:28:39;;;;;;;17.25;8.77;;;10.90;89.80;;;;;;5009168;28;20457;-70
2021/05/30 00:31:05;;;;;;;18.38;9.60;;;10.90;89.90;;;;;;5008846;28;20084;-69
2021/05/30 00:33:31;;;;;;;20.38;9.73;;;10.90;89.90;;;;;;5008665;28;20042;-70
2021/05/30 00:35:56;;;;;;;16.05;9.68;;;10.90;90.00;;;;;;5009109;28;20038;-70
2021/05/30 00:38:22;;;;;;;18.38;9.75;;;10.90;90.00;;;;;;5009754;28;20370;-71
2021/05/30 00:40:48;;;;;;;19.25;9.93;;;10.90;90.10;;;;;;5012043;28;20034;-71
2021/05/30 00:43:14;;;;;;;16.13;9.93;;;10.90;90.00;;;;;;5013079;28;20022;-70
2021/05/30 00:45:39;;;;;;;22.92;10.15;;;10.90;90.00;;;;;;5012864;28;20072;-70
2021/05/30 00:48:05;;;;;;;15.05;9.57;;;10.80;90.50;;;;;;5012111;28;20053;-71
2021/05/30 00:50:34;;;;;;;15.23;9.13;;;10.70;90.30;;;;;;5011490;28;20030;-70
2021/05/30 00:53:00;;;;;;;19.30;10.60;;;10.80;90.30;;;;;;5011729;28;20028;-70
2021/05/30 00:55:25;;;;;;;17.25;9.30;;;10.70;90.20;;;;;;5001350;28;20087;-71
2021/05/30 00:57:52;;;;;;;12.38;8.25;;;10.70;90.20;;;;;;5003376;28;20539;-70
2021/05/30 01:00:19;;;;;;;16.40;8.90;;;10.70;90.10;;;;;;5001010;28;20053;-69
2021/05/30 01:02:44;;;;;;;19.20;10.57;;;10.70;90.00;;;;;;4997821;28;20037;-70
2021/05/30 01:05:11;;;;;;;20.70;11.00;;;10.70;90.20;;;;;;5001028;28;20555;-71
2021/05/30 01:07:41;;;;;;;17.63;9.50;;;10.70;90.20;;;;;;5007942;28;20399;-70
2021/05/30 01:10:32;;;;;;;16.88;9.63;;;10.70;90.10;;;;;;5011262;28;20029;-70
2021/05/30 01:12:58;;;;;;;20.17;10.70;;;10.70;90.00;;;;;;5020847;28;20096;-70
2021/05/30 01:15:26;;;;;;;21.48;11.25;;;10.60;90.20;;;;;;5012344;28;20026;-71
2021/05/30 01:17:53;;;;;;;20.65;11.32;;;10.60;90.30;;;;;;5016567;28;20411;-71
2021/05/30 01:20:20;;;;;;;24.17;11.60;;;10.60;90.20;;;;;;5011538;28;20057;-70
2021/05/30 01:22:50;;;;;;;24.25;12.70;;;10.60;90.30;;;;;;5010378;28;20030;-71
2021/05/30 01:25:18;;;;;;;23.30;11.10;;;10.60;90.40;;;;;;5006100;28;20162;-71
2021/05/30 01:27:44;;;;;;;23.77;12.07;;;10.60;90.30;;;;;;4999948;28;20502;-70
2021/05/30 01:30:11;;;;;;;21.27;12.52;;;10.50;90.40;;;;;;5000147;28;20038;-70
2021/05/30 01:32:37;;;;;;;25.77;13.70;;;10.50;90.50;;;;;;5008531;28;20033;-70
2021/05/30 01:35:05;;;;;;;23.98;12.32;;;10.50;90.60;;;;;;5010865;28;20034;-70
2021/05/30 01:37:31;;;;;;;20.88;13.57;;;10.50;90.70;;;;;;5009343;28;20414;-71
2021/05/30 01:39:56;;;;;;;25.52;13.25;;;10.50;90.80;;;;;;5012038;28;20097;-70
2021/05/30 01:42:22;;;;;;;26.42;15.27;;;10.40;90.70;;;;;;5010989;28;20030;-70
2021/05/30 01:44:48;;;;;;;22.08;13.05;;;10.40;90.80;;;;;;5011988;28;20034;-69
2021/05/30 01:47:14;;;;;;;24.92;14.13;;;10.40;90.90;;;;;;5008790;28;20026;-70
2021/05/30 01:49:40;;;;;;;22.20;13.07;;;10.40;90.90;;;;;;5010864;28;20109;-70
2021/05/30 01:52:07;;;;;;;22.48;12.35;;;10.40;90.90;;;;;;5009697;28;20033;-70
2021/05/30 01:54:35;;;;;;;23.42;12.13;;;10.30;91.10;;;;;;5012358;28;20083;-70
2021/05/30 01:57:08;;;;;;;26.15;14.63;;;10.30;90.80;;;;;;5006823;28;20029;-70
2021/05/30 01:59:33;;;;;;;20.48;13.48;;;10.30;91.00;;;;;;5010164;28;20084;-70
2021/05/30 02:02:02;;;;;;;23.65;13.48;;;10.20;91.00;;;;;;5009130;28;20395;-70
2021/05/30 02:04:36;;;;;;;21.83;13.20;;;10.20;91.30;;;;;;5006393;28;20030;-70
2021/05/30 02:07:02;;;;;;;22.60;12.70;;;10.20;91.20;;;;;;5009488;28;20450;-69
2021/05/30 02:09:29;;;;;;;25.17;13.35;;;10.20;91.20;;;;;;5011842;28;20049;-70
2021/05/30 02:11:55;;;;;;;25.13;13.32;;;10.20;91.20;;;;;;5008536;28;20022;-71
2021/05/30 02:14:21;;;;;;;18.15;11.27;;;10.20;91.20;;;;;;5008393;28;20103;-70
2021/05/30 02:16:47;;;;;;;20.50;11.18;;;10.20;91.20;;;;;;5009759;28;20380;-70
2021/05/30 02:19:12;;;;;;;25.08;13.13;;;10.10;91.10;;;;;;5008441;28;20058;-70
2021/05/30 02:21:50;;;;;;;29.38;13.65;;;10.10;91.30;;;;;;5010328;28;20034;-70
2021/05/30 02:24:18;;;;;;;22.48;12.70;;;10.10;91.40;;;;;;5009147;28;20068;-70
2021/05/30 02:26:44;;;;;;;22.88;12.93;;;10.10;91.30;;;;;;5011196;28;20028;-70
2021/05/30 02:29:17;;;;;;;22.08;11.68;;;10.10;91.30;;;;;;5006795;28;20037;-71
2021/05/30 02:31:43;;;;;;;19.55;12.25;;;10.00;91.20;;;;;;5008965;28;20459;-70
2021/05/30 02:34:09;;;;;;;19.17;13.50;;;10.00;91.30;;;;;;5008187;28;20489;-72
2021/05/30 02:36:34;;;;;;;28.27;13.93;;;10.00;91.30;;;;;;5009038;28;20042;-71
2021/05/30 02:39:00;;;;;;;24.90;12.82;;;10.00;91.50;;;;;;5011862;28;20524;-69
2021/05/30 02:41:26;;;;;;;22.42;12.30;;;10.00;91.50;;;;;;5009882;28;20037;-70
2021/05/30 02:43:51;;;;;;;26.92;15.95;;;10.00;91.40;;;;;;5009483;28;20361;-70
2021/05/30 02:46:17;;;;;;;23.08;13.88;;;10.00;91.70;;;;;;5007802;28;20041;-70
2021/05/30 02:48:43;;;;;;;22.05;12.13;;;10.00;91.60;;;;;;5009123;28;20044;-70
2021/05/30 02:51:09;;;;;;;23.63;13.40;;;10.00;91.40;;;;;;5008452;28;20064;-70
2021/05/30 02:53:35;;;;;;;23.60;14.40;;;10.00;91.60;;;;;;5010044;28;20091;-69
2021/05/30 02:56:02;;;;;;;25.83;13.75;;;10.00;91.70;;;;;;5009078;28;20042;-70
2021/05/30 02:58:29;;;;;;;24.75;14.20;;;10.00;91.60;;;;;;5007392;28;20033;-70
2021/05/30 03:00:55;;;;;;;24.05;14.80;;;10.00;91.90;;;;;;5005650;28;20583;-70
2021/05/30 03:03:21;;;;;;;26.20;13.55;;;10.00;91.90;;;;;;5007993;28;20391;-70
2021/05/30 03:05:47;;;;;;;26.95;14.07;;;10.00;91.90;;;;;;5009461;28;20026;-70
2021/05/30 03:08:13;;;;;;;20.80;12.75;;;10.00;91.80;;;;;;5006986;28;20038;-70
2021/05/30 03:10:39;;;;;;;22.30;13.57;;;10.00;91.60;;;;;;5005123;28;20026;-70
2021/05/30 03:13:05;;;;;;;20.58;12.52;;;10.00;91.60;;;;;;5009262;28;20060;-70
2021/05/30 03:15:31;;;;;;;19.88;12.98;;;9.90;91.60;;;;;;5007334;28;20477;-70
2021/05/30 03:17:56;;;;;;;26.38;12.73;;;9.90;91.70;;;;;;5007569;28;20483;-70
2021/05/30 03:20:22;;;;;;;22.05;11.85;;;9.90;91.80;;;;;;5008297;28;20025;-70
2021/05/30 03:22:48;;;;;;;26.40;12.70;;;9.90;91.70;;;;;;5008942;28;20038;-70
2021/05/30 03:25:15;;;;;;;20.20;12.18;;;9.90;91.70;;;;;;5008092;28;20036;-70
2021/05/30 03:27:41;;;;;;;22.17;12.20;;;9.90;91.70;;;;;;5006112;28;20062;-70
2021/05/30 03:30:08;;;;;;;22.38;12.52;;;9.90;91.70;;;;;;5007187;28;20064;-70
2021/05/30 03:32:34;;;;;;;20.00;11.13;;;9.90;91.80;;;;;;5013494;28;20120;-71
2021/05/30 03:35:01;;;;;;;23.60;12.48;;;9.90;91.70;;;;;;5008232;28;20541;-70
2021/05/30 03:37:27;;;;;;;21.52;11.85;;;9.90;91.70;;;;;;5007846;28;20040;-70
2021/05/30 03:39:56;;;;;;;19.70;11.98;;;9.90;91.70;;;;;;5008298;28;20041;-69
2021/05/30 03:42:27;;;;;;;23.30;13.13;;;9.90;91.80;;;;;;5004561;28;20091;-70
2021/05/30 03:44:56;;;;;;;21.27;12.75;;;9.90;91.80;;;;;;5008653;28;20032;-70
2021/05/30 03:47:22;;;;;;;18.27;12.43;;;9.90;91.90;;;;;;5007604;28;20040;-71
2021/05/30 03:49:48;;;;;;;20.65;12.18;;;9.90;91.90;;;;;;5008591;28;20397;-71
2021/05/30 03:52:14;;;;;;;23.08;12.07;;;9.90;91.70;;;;;;5008203;28;20044;-71
2021/05/30 03:54:39;;;;;;;19.83;11.90;;;9.90;91.80;;;;;;5007406;28;20056;-70
2021/05/30 03:57:05;;;;;;;20.27;13.15;;;9.90;91.80;;;;;;5005734;28;20438;-69
2021/05/30 03:59:31;;;;;;;22.60;13.00;;;10.00;91.90;;;;;;5005542;28;20096;-70
2021/05/30 04:01:56;;;;;;;25.20;15.13;;;10.00;91.90;;;;;;5005189;28;20038;-70
2021/05/30 04:04:22;;;;;;;23.48;12.82;;;10.00;92.00;;;;;;5006085;28;20080;-70
2021/05/30 04:06:48;;;;;;;25.55;14.40;;;10.00;92.00;;;;;;5009236;28;20113;-70
2021/05/30 04:09:14;;;;;;;24.02;13.75;;;9.90;92.10;;;;;;5009090;28;20464;-70
2021/05/30 04:11:39;;;;;;;27.38;15.40;;;10.00;92.20;;;;;;5005119;28;20046;-70
2021/05/30 04:14:05;;;;;;;24.98;14.48;;;9.90;92.50;;;;;;5005929;28;20449;-70
2021/05/30 04:16:31;;;;;;;25.25;13.45;;;10.00;92.40;;;;;;5008932;28;20540;-71
2021/05/30 04:18:56;;;;;;;22.50;14.10;;;10.00;92.40;;;;;;5006801;28;20495;-69
2021/05/30 04:21:22;;;;;;;31.02;15.38;;;10.00;92.40;;;;;;5008369;28;20120;-70
2021/05/30 04:23:48;;;;;;;30.13;14.95;;;10.00;92.50;;;;;;5008198;28;20037;-69
2021/05/30 04:26:15;;;;;;;25.10;14.10;;;10.00;92.50;;;;;;5003780;28;20056;-70
2021/05/30 04:28:40;;;;;;;22.13;13.30;;;10.10;92.60;;;;;;5005362;28;20384;-70
2021/05/30 04:31:06;;;;;;;30.10;17.10;;;10.10;92.50;;;;;;5006465;28;20038;-69
2021/05/30 04:33:32;;;;;;;23.30;13.88;;;10.10;92.70;;;;;;5006545;28;20030;-70
2021/05/30 04:35:58;;;;;;;29.70;16.85;;;10.10;92.70;;;;;;5006301;28;20396;-70
2021/05/30 04:38:23;;;;;;;33.35;17.65;;;10.20;92.90;;;;;;5007754;28;20034;-71
2021/05/30 04:40:50;;;;;;;32.78;16.95;;;10.20;93.20;;;;;;5005235;28;20034;-71
2021/05/30 04:43:16;;;;;;;33.30;19.50;;;10.10;93.30;;;;;;5006508;28;20481;-70
2021/05/30 04:45:42;;;;;;;33.63;18.60;;;10.20;93.30;;;;;;5006274;28;20030;-69
2021/05/30 04:48:08;;;;;;;27.55;16.52;;;10.20;93.30;;;;;;5004032;28;20030;-71
2021/05/30 04:50:34;;;;;;;28.33;16.27;;;10.20;93.30;;;;;;5008070;28;20447;-71
2021/05/30 04:53:00;;;;;;;25.75;16.17;;;10.20;93.40;;;;;;5007566;28;20072;-71
2021/05/30 04:55:26;;;;;;;25.30;14.55;;;10.20;93.40;;;;;;5005204;28;20026;-70
2021/05/30 04:57:52;;;;;;;26.17;14.18;;;10.20;93.20;;;;;;5005091;28;20045;-70
2021/05/30 05:00:18;;;;;;;33.47;16.30;;;10.20;93.30;;;;;;5007211;28;20033;-71
2021/05/30 05:02:43;;;;;;;30.85;17.00;;;10.30;93.40;;;;;;5006144;28;20057;-70
2021/05/30 05:05:11;;;;;;;27.45;15.50;;;10.40;93.30;;;;;;5015022;28;20044;-70
2021/05/30 05:07:37;;;;;;;25.55;14.52;;;10.40;93.30;;;;;;5009588;28;20030;-70
2021/05/30 05:10:04;;;;;;;26.88;14.90;;;10.40;93.20;;;;;;5006147;28;20080;-70
2021/05/30 05:12:29;;;;;;;30.65;15.55;;;10.50;93.20;;;;;;5007516;28;20058;-69
2021/05/30 05:14:55;;;;;;;33.15;17.45;;;10.50;93.40;;;;;;5005826;28;20070;-70
2021/05/30 05:17:21;;;;;;;36.47;16.65;;;10.50;93.50;;;;;;5006762;28;20033;-69
2021/05/30 05:19:47;;;;;;;29.63;14.65;;;10.50;93.50;;;;;;5004494;28;20030;-71
2021/05/30 05:22:13;;;;;;;31.67;15.10;;;10.50;93.70;;;;;;5005873;28;20030;-70
2021/05/30 05:24:38;;;;;;;26.63;15.15;;;10.60;93.60;;;;;;5008409;28;20035;-69
2021/05/30 05:27:05;;;;;;;34.33;16.13;;;10.60;93.60;;;;;;5008828;28;20030;-71
2021/05/30 05:29:31;;;;;;;28.55;15.35;;;10.60;93.70;;;;;;5006869;28;20026;-71
2021/05/30 05:31:56;;;;;;;25.75;12.90;;;10.60;93.60;;;;;;5009874;28;20042;-70
2021/05/30 05:34:22;;;;;;;26.38;13.13;;;10.60;93.60;;;;;;5009321;28;20030;-70
2021/05/30 05:36:48;;;;;;;22.80;12.63;;;10.60;93.50;;;;;;5009934;28;20045;-70
2021/05/30 05:39:13;;;;;;;24.45;12.93;;;10.60;93.50;;;;;;5011594;28;20117;-70
2021/05/30 05:41:39;;;;;;;29.45;13.73;;;10.60;93.50;;;;;;5009111;28;20061;-70
2021/05/30 05:44:05;;;;;;;28.73;13.35;;;10.60;93.60;;;;;;5006931;28;20079;-70
2021/05/30 05:46:31;;;;;;;23.55;13.98;;;10.60;93.60;;;;;;5008596;28;20062;-70
2021/05/30 05:48:56;;;;;;;24.38;13.68;;;10.60;93.50;;;;;;5010902;28;20490;-70
2021/05/30 05:51:25;;;;;;;26.30;14.45;;;10.50;93.60;;;;;;5011503;28;20553;-70
2021/05/30 05:53:51;;;;;;;27.65;13.20;;;10.50;93.80;;;;;;5009884;28;20084;-70
2021/05/30 05:56:17;;;;;;;20.50;12.27;;;10.50;93.70;;;;;;5008556;28;20034;-70
2021/05/30 05:58:42;;;;;;;29.80;14.95;;;10.50;93.60;;;;;;5007248;28;20538;-70
2021/05/30 06:01:09;;;;;;;26.67;14.05;;;10.60;93.60;;;;;;5007675;28;20044;-70
2021/05/30 06:03:36;;;;;;;26.00;15.10;;;10.70;93.70;;;;;;5010237;28;20036;-70
2021/05/30 06:06:03;;;;;;;22.88;14.18;;;10.70;93.40;;;;;;5010755;28;20037;-70
2021/05/30 06:08:30;;;;;;;27.60;15.18;;;10.80;93.30;;;;;;5007717;28;20018;-71
2021/05/30 06:10:56;;;;;;;21.40;12.43;;;10.80;93.20;;;;;;5006114;28;20409;-71
2021/05/30 06:13:22;;;;;;;25.48;14.52;;;10.80;93.30;;;;;;5008662;28;20030;-70
2021/05/30 06:15:47;;;;;;;25.80;13.30;;;10.80;93.20;;;;;;5004381;28;20044;-71
2021/05/30 06:18:15;;;;;;;27.02;14.70;;;10.90;93.20;;;;;;5007733;28;20384;-71
2021/05/30 06:20:45;;;;;;;25.35;15.48;;;10.90;93.20;;;;;;5006448;28;20084;-70
2021/05/30 06:23:11;;;;;;;27.20;15.23;;;10.90;93.10;;;;;;5008663;28;20049;-70
2021/05/30 06:25:37;;;;;;;26.42;15.75;;;10.90;93.00;;;;;;5007996;28;20109;-71
2021/05/30 06:28:04;;;;;;;29.27;15.75;;;10.90;93.00;;;;;;5008306;28;20561;-70
2021/05/30 06:30:39;;;;;;;24.88;14.20;;;10.90;93.00;;;;;;5008296;28;20105;-73
2021/05/30 06:33:10;;;;;;;29.92;15.07;;;10.90;93.10;;;;;;5007671;28;20404;-70
2021/05/30 06:35:39;;;;;;;26.95;13.57;;;11.00;93.00;;;;;;5007782;28;20035;-70
2021/05/30 06:38:04;;;;;;;21.33;12.20;;;11.10;93.00;;;;;;5008812;28;20320;-70
2021/05/30 06:40:30;;;;;;;23.38;13.73;;;11.10;93.00;;;;;;5008407;28;20072;-72
2021/05/30 06:42:56;;;;;;;26.58;14.40;;;11.10;92.80;;;;;;5007824;28;20032;-70
2021/05/30 06:45:22;;;;;;;23.23;14.40;;;11.10;92.80;;;;;;5007959;28;20096;-69
2021/05/30 06:47:47;;;;;;;30.52;14.63;;;11.10;92.70;;;;;;5006716;28;20022;-71
2021/05/30 06:50:13;;;;;;;26.58;14.23;;;11.10;92.70;;;;;;5005923;28;20384;-70
2021/05/30 06:52:39;;;;;;;27.73;14.70;;;11.20;92.80;;;;;;5008398;28;20131;-70
2021/05/30 06:55:06;;;;;;;30.70;14.98;;;11.20;92.70;;;;;;5009240;28;20092;-71
2021/05/30 06:57:31;;;;;;;31.35;15.68;;;11.30;92.60;;;;;;5009159;28;20034;-70
2021/05/30 06:59:57;;;;;;;25.15;13.52;;;11.40;92.40;;;;;;5016034;28;20029;-70
2021/05/30 07:02:23;;;;;;;32.50;17.42;;;11.50;92.70;;;;;;5007513;28;20050;-71
2021/05/30 07:04:48;;;;;;;29.83;16.95;;;11.50;92.50;;;;;;5006684;28;20057;-70
2021/05/30 07:07:14;;;;;;;28.35;15.60;;;11.50;92.30;;;;;;5008527;28;20030;-71
2021/05/30 07:09:40;;;;;;;24.90;13.90;;;11.60;92.20;;;;;;5008437;28;20550;-71
2021/05/30 07:12:06;;;;;;;32.30;14.50;;;11.60;92.20;;;;;;5009555;28;20080;-71
2021/05/30 07:14:32;;;;;;;19.70;11.43;;;11.60;92.10;;;;;;5008657;28;20196;-71
2021/05/30 07:16:58;;;;;;;17.40;10.63;;;11.70;92.10;;;;;;5006508;28;20536;-70
2021/05/30 07:19:24;;;;;;;17.90;10.70;;;11.80;92.10;;;;;;5007763;28;20030;-70
2021/05/30 07:21:50;;;;;;;21.25;12.07;;;11.80;91.90;;;;;;5008157;28;20045;-70
2021/05/30 07:24:16;;;;;;;16.55;10.00;;;11.80;91.40;;;;;;5008099;28;20488;-72
2021/05/30 07:26:42;;;;;;;17.65;10.48;;;11.90;91.50;;;;;;5006864;28;20025;-71
2021/05/30 07:29:09;;;;;;;15.45;10.02;;;11.90;91.50;;;;;;5008871;28;20515;-71
2021/05/30 07:31:35;;;;;;;17.33;11.20;;;11.90;91.30;;;;;;5008852;28;20034;-71
2021/05/30 07:34:01;;;;;;;21.35;11.18;;;12.00;91.10;;;;;;5005042;28;20023;-72
2021/05/30 07:36:28;;;;;;;16.08;9.68;;;12.00;91.30;;;;;;5015875;28;20030;-71
2021/05/30 07:38:55;;;;;;;15.50;10.27;;;12.10;91.30;;;;;;5004905;28;20030;-71
2021/05/30 07:41:22;;;;;;;21.42;11.90;;;12.20;91.20;;;;;;5017013;28;20076;-71
2021/05/30 07:43:48;;;;;;;22.10;12.27;;;12.20;91.00;;;;;;5008079;28;20116;-71
2021/05/30 07:46:14;;;;;;;21.02;12.18;;;12.30;90.60;;;;;;5008406;28;20030;-71
2021/05/30 07:48:39;;;;;;;23.60;12.95;;;12.30;90.60;;;;;;5010098;28;20021;-72
2021/05/30 07:51:05;;;;;;;22.63;13.30;;;12.30;90.50;;;;;;5013411;28;20056;-72
2021/05/30 07:53:32;;;;;;;19.33;13.07;;;12.40;90.50;;;;;;5011051;28;20077;-75
2021/05/30 07:55:58;;;;;;;24.23;13.20;;;12.40;90.40;;;;;;5012197;28;20760;-71
2021/05/30 07:58:24;;;;;;;21.65;13.07;;;12.50;90.50;;;;;;5014797;28;20119;-72
2021/05/30 08:00:54;;;;;;;22.15;12.98;;;12.70;90.40;;;;;;5004918;28;20025;-70
2021/05/30 08:03:21;;;;;;;20.25;12.05;;;12.60;90.20;;;;;;5008002;28;20111;-73
2021/05/30 08:05:47;;;;;;;15.70;10.40;;;12.50;89.30;;;;;;5011600;28;20547;-73
2021/05/30 08:08:13;;;;;;;21.88;13.23;;;12.50;90.00;;;;;;5015356;28;20152;-73
2021/05/30 08:10:40;;;;;;;19.45;11.40;;;12.50;89.90;;;;;;5006659;28;20018;-71
2021/05/30 08:13:05;;;;;;;16.73;10.98;;;12.50;89.90;;;;;;5009142;28;20542;-73
2021/05/30 08:15:31;;;;;;;16.80;10.93;;;12.50;89.90;;;;;;5008708;28;20030;-72
2021/05/30 08:17:57;;;;;;;17.95;10.68;;;12.50;89.70;;;;;;5008530;28;20030;-72
2021/05/30 08:20:25;;;;;;;17.58;11.65;;;12.50;89.80;;;;;;5011731;28;20110;-73
2021/05/30 08:22:51;;;;;;;18.77;10.95;;;12.50;89.70;;;;;;5009053;28;20105;-72
2021/05/30 08:25:19;;;;;;;16.38;10.23;;;12.50;89.70;;;;;;5007362;28;20404;-71
2021/05/30 08:27:48;;;;;;;15.02;10.10;;;12.50;89.70;;;;;;5010035;28;20559;-72
2021/05/30 08:30:14;;;;;;;16.35;10.68;;;12.50;89.80;;;;;;5005301;28;20755;-73
2021/05/30 08:32:40;;;;;;;14.88;10.40;;;12.50;90.20;;;;;;5001777;28;20428;-72
2021/05/30 08:35:07;;;;;;;16.73;9.68;;;12.60;90.10;;;;;;5007381;28;20033;-72
2021/05/30 08:37:33;;;;;;;15.45;10.38;;;12.70;89.90;;;;;;4997666;28;20496;-72
2021/05/30 08:39:59;;;;;;;19.48;10.02;;;12.70;89.70;;;;;;5008912;28;20041;-72
2021/05/30 08:42:25;;;;;;;19.45;9.98;;;12.70;89.30;;;;;;5003899;28;20404;-73
2021/05/30 08:44:51;;;;;;;20.80;11.63;;;12.80;89.10;;;;;;5010181;28;20027;-73
2021/05/30 08:47:23;;;;;;;16.77;11.27;;;12.80;89.20;;;;;;5005568;28;20036;-75
2021/05/30 08:49:50;;;;;;;16.27;9.18;;;12.80;88.60;;;;;;5011173;28;20068;-73
2021/05/30 08:52:16;;;;;;;19.65;9.98;;;12.90;88.80;;;;;;5007018;28;20031;-74
2021/05/30 08:54:42;;;;;;;14.07;7.88;;;12.90;88.00;;;;;;5007369;28;20045;-73
2021/05/30 08:57:07;;;;;;;15.02;9.48;;;13.00;88.20;;;;;;5006887;28;20030;-73
2021/05/30 08:59:35;;;;;;;12.98;8.70;;;13.00;87.80;;;;;;5005596;28;20727;-74
2021/05/30 09:02:13;;;;;;;12.05;7.75;;;13.00;87.90;;;;;;5007805;28;20038;-73
2021/05/30 09:04:54;;;;;;;12.82;8.02;;;13.00;87.60;;;;;;5007442;28;20034;-73
2021/05/30 09:07:41;;;;;;;12.35;7.47;;;13.10;87.60;;;;;;5011574;28;20030;-74
2021/05/30 09:10:15;;;;;;;8.93;6.60;;;13.20;87.90;;;;;;5010374;28;20084;-74
2021/05/30 09:12:42;;;;;;;12.82;7.93;;;13.20;87.90;;;;;;5010702;28;20476;-74
2021/05/30 09:15:14;;;;;;;16.83;9.07;;;13.30;87.80;;;;;;5014468;28;20026;-74
2021/05/30 09:17:40;;;;;;;24.75;10.05;;;13.40;87.20;;;;;;5011044;28;20258;-73
2021/05/30 09:20:07;;;;;;;19.55;9.85;;;13.40;87.30;;;;;;5012952;28;20037;-73
2021/05/30 09:22:40;;;;;;;18.15;9.63;;;13.50;86.50;;;;;;5011224;28;20496;-74
2021/05/30 09:25:17;;;;;;;15.27;9.48;;;13.60;87.00;;;;;;5009679;28;20030;-73
2021/05/30 09:27:53;;;;;;;17.10;8.57;;;13.60;86.20;;;;;;5007819;28;20463;-73
2021/05/30 09:30:42;;;;;;;18.65;10.40;;;13.60;86.10;;;;;;5019859;28;20026;-74
2021/05/30 09:33:14;;;;;;;15.88;9.48;;;13.70;86.30;;;;;;5003306;28;20061;-72
2021/05/30 09:35:39;;;;;;;13.07;8.40;;;13.80;86.80;;;;;;5006287;28;20032;-72
2021/05/30 09:38:08;;;;;;;19.58;10.00;;;13.90;86.00;;;;;;5004785;28;20049;-72
2021/05/30 09:40:48;;;;;;;14.15;8.75;;;13.90;85.60;;;;;;5003730;28;20034;-71
2021/05/30 09:43:35;;;;;;;18.90;10.85;;;14.00;85.90;;;;;;5007270;28;20041;-72
2021/05/30 09:46:12;;;;;;;16.48;9.23;;;14.10;84.90;;;;;;5008494;28;20061;-71
2021/05/30 09:48:51;;;;;;;12.80;8.13;;;14.10;83.80;;;;;;5003659;28;20484;-71
2021/05/30 09:51:27;;;;;;;13.95;8.77;;;14.20;84.30;;;;;;5006924;28;20116;-72
2021/05/30 09:54:01;;;;;;;17.60;9.70;;;14.20;84.20;;;;;;5008593;28;20553;-71
2021/05/30 09:56:37;;;;;;;11.05;7.60;;;14.30;83.90;;;;;;5010581;28;20038;-72
2021/05/30 09:59:09;;;;;;;21.73;8.60;;;14.30;84.20;;;;;;5005908;28;20030;-66
2021/05/30 10:01:55;;;;;;;13.88;8.57;;;14.40;84.10;;;;;;5003801;28;20033;-66
2021/05/30 10:04:23;;;;;;;15.80;7.70;;;14.50;83.60;;;;;;5006811;28;20452;-67
2021/05/30 10:06:49;;;;;;;14.88;9.98;;;14.50;83.40;;;;;;5005805;28;20070;-67
2021/05/30 10:09:15;;;;;;;15.32;9.65;;;14.50;82.60;;;;;;5008640;28;20033;-71
2021/05/30 10:11:43;;;;;;;19.85;9.43;;;14.50;83.00;;;;;;5007526;28;20030;-71
2021/05/30 10:14:09;;;;;;;17.95;8.95;;;14.60;82.80;;;;;;5008098;28;20036;-73
2021/05/30 10:16:36;;;;;;;20.52;10.02;;;14.60;82.80;;;;;;5008855;28;20022;-69
2021/05/30 10:19:37;;;;;;;16.23;9.15;;;14.70;82.30;;;;;;5008918;28;20460;-66
2021/05/30 10:22:03;;;;;;;16.90;9.50;;;14.80;82.70;;;;;;5020726;28;20034;-67
2021/05/30 10:24:31;;;;;;;15.18;8.93;;;14.80;82.30;;;;;;5007261;28;20022;-68
2021/05/30 10:27:30;;;;;;;18.65;8.95;;;14.90;82.60;;;;;;5008034;28;20084;-68
2021/05/30 10:30:11;;;;;;;15.82;7.53;;;14.90;81.80;;;;;;5008778;28;20044;-68
2021/05/30 10:32:46;;;;;;;17.90;9.13;;;14.90;82.60;;;;;;5008012;28;20032;-68
2021/05/30 10:35:25;;;;;;;12.43;8.13;;;15.00;81.30;;;;;;5008474;28;20077;-68
2021/05/30 10:37:52;;;;;;;11.55;7.00;;;15.10;81.80;;;;;;5007258;28;20041;-67
2021/05/30 10:40:23;;;;;;;11.32;7.20;;;15.10;81.90;;;;;;5008662;28;20052;-68
2021/05/30 10:43:07;;;;;;;17.20;9.50;;;15.10;81.80;;;;;;5009410;28;20431;-67
2021/05/30 10:45:54;;;;;;;16.30;9.85;;;15.20;81.50;;;;;;5005729;28;20033;-69
2021/05/30 10:48:19;;;;;;;14.45;8.02;;;15.20;81.40;;;;;;5009906;28;20419;-68
2021/05/30 10:53:41;;;;;;;11.18;7.25;;;15.30;82.00;;;;;;5003861;28;20037;-67
2021/05/30 10:56:17;;;;;;;13.73;7.63;;;15.40;81.90;;;;;;5018835;28;20025;-67
2021/05/30 10:58:45;;;;;;;20.33;9.48;;;15.50;81.70;;;;;;5007667;28;20045;-68
2021/05/30 11:01:43;;;;;;;16.02;8.45;;;15.50;80.70;;;;;;5004895;28;20427;-67
2021/05/30 11:04:30;;;;;;;14.23;8.35;;;15.60;80.70;;;;;;5009763;28;20042;-67
2021/05/30 11:06:57;;;;;;;17.42;8.27;;;15.70;81.10;;;;;;5007511;28;20037;-67
2021/05/30 11:09:23;;;;;;;11.02;7.75;;;15.80;82.00;;;;;;5004251;28;20030;-67
2021/05/30 11:12:17;;;;;;;14.55;7.65;;;16.00;83.90;;;;;;5002425;28;20025;-68
2021/05/30 11:15:08;;;;;;;13.13;7.85;;;16.30;84.20;;;;;;5009064;28;20079;-69
2021/05/30 11:17:39;;;;;;;12.43;7.38;;;16.80;82.90;;;;;;5010068;28;20033;-68
2021/05/30 11:20:07;;;;;;;12.68;7.32;;;17.40;83.30;;;;;;5022394;28;20096;-68
2021/05/30 11:22:53;;;;;;;10.32;6.32;;;18.00;79.90;;;;;;5008249;28;20038;-68
2021/05/30 11:25:23;;;;;;;6.95;4.47;;;19.00;77.40;;;;;;5006883;28;20489;-69
2021/05/30 11:27:58;;;;;;;10.07;5.80;;;20.80;73.20;;;;;;5010909;28;20030;-69
2021/05/30 11:30:40;;;;;;;9.77;5.85;;;22.70;64.80;;;;;;5001207;28;20029;-69
2021/05/30 11:33:08;;;;;;;10.70;5.20;;;24.40;58.80;;;;;;5001257;28;20085;-69
2021/05/30 11:35:35;;;;;;;11.15;6.30;;;25.50;54.70;;;;;;5009161;28;20034;-70
2021/05/30 11:38:02;;;;;;;10.30;5.85;;;26.00;46.80;;;;;;5007294;28;20042;-68
2021/05/30 11:40:27;;;;;;;11.77;5.65;;;26.40;48.10;;;;;;5007438;28;20044;-69
2021/05/30 11:42:54;;;;;;;22.65;8.80;;;26.80;48.50;;;;;;5008800;28;20026;-68
2021/05/30 11:45:49;;;;;;;21.08;9.23;;;27.30;46.40;;;;;;5008139;28;20046;-69
2021/05/30 11:48:17;;;;;;;17.00;7.30;;;27.60;41.70;;;;;;5018436;28;20046;-69
2021/05/30 11:50:51;;;;;;;10.07;5.47;;;27.40;44.70;;;;;;5015587;28;20049;-72
2021/05/30 11:53:33;;;;;;;9.02;5.13;;;27.40;44.40;;;;;;5015643;28;20029;-70
2021/05/30 11:56:00;;;;;;;11.82;5.65;;;27.60;42.80;;;;;;5011028;28;20022;-70
2021/05/30 11:58:26;;;;;;;7.95;4.38;;;27.60;44.90;;;;;;5009664;28;20048;-70
2021/05/30 12:01:03;;;;;;;12.20;4.35;;;27.80;44.70;;;;;;5007475;28;20108;-73
2021/05/30 12:03:32;;;;;;;9.15;4.30;;;28.00;42.60;;;;;;5007620;28;20125;-71
2021/05/30 12:06:03;;;;;;;8.23;4.57;;;28.00;42.50;;;;;;5006621;28;20022;-75
2021/05/30 12:08:30;;;;;;;11.90;5.10;;;28.00;43.20;;;;;;5000397;28;20036;-74
2021/05/30 12:10:58;;;;;;;8.40;5.07;;;27.70;44.10;;;;;;5008335;28;20101;-70
2021/05/30 12:13:28;;;;;;;9.23;5.38;;;27.60;43.10;;;;;;5006083;28;20022;-71
2021/05/30 12:15:56;;;;;;;11.70;5.82;;;27.10;43.10;;;;;;5006132;28;20045;-71
2021/05/30 12:18:22;;;;;;;9.45;4.35;;;26.60;44.40;;;;;;5005276;28;20033;-71
2021/05/30 12:20:49;;;;;;;9.70;4.88;;;26.30;47.50;;;;;;5012705;28;20061;-71
2021/05/30 12:23:20;;;;;;;8.48;3.97;;;26.00;45.30;;;;;;5005694;28;20109;-71
2021/05/30 12:25:57;;;;;;;7.00;3.50;;;25.80;45.40;;;;;;5006058;28;20761;-71
2021/05/30 12:28:26;;;;;;;8.32;3.95;;;25.70;47.50;;;;;;5001560;28;20026;-71
2021/05/30 12:30:53;;;;;;;8.73;4.45;;;25.90;46.90;;;;;;5006248;28;20029;-72
2021/05/30 12:33:23;;;;;;;9.35;4.20;;;26.10;45.80;;;;;;5007342;28;20468;-72
2021/05/30 12:35:54;;;;;;;6.20;3.78;;;26.20;44.40;;;;;;5006235;28;20026;-70
2021/05/30 12:38:30;;;;;;;8.82;4.43;;;26.50;45.70;;;;;;5006207;28;20110;-71
2021/05/30 12:40:56;;;;;;;8.65;4.97;;;26.70;42.30;;;;;;5007653;28;20543;-73